KCDH

Harrell Field Airport

Camden, Arkansas, USA
METAR KCDH 161215Z AUTO 00000KT 1/2SM BR VV005 03/02 A3027 RMK AO2
Observed Flight Rules
Dec-16 @ 12:15 UTC (30 minutes ago) Instrument Flight Rules
Visibility Clouds Conditions
1/2 miles
  • Vertical visibility at 500' AGL
  • Mist
Temperatures Readings
Current 3°C / 37°F
Dewpoint 2°C / 36°F
Humidity 93%
Altimeter 30.27" Hg
Pressure 1025 hPa
Elevation 35
METAR KCDH 161215Z AUTO 00000KT 1/2SM BR VV005 03/02 A3027 RMK AO2
Observed Flight Rules
Dec-16 @ 12:15 UTC
(30 minutes ago)
LIFR
Clouds
  • Vertical visibility at 500' AGL
Conditions
  • Mist
Temperature Dewpoint
3°C / 37°F 2°C / 36°F
Humidity Altimeter Pressure
93% 30.27" Hg 1025 hPa